createdAt,value
2022-11-25T00:01:08.737Z,841.1
2022-11-25T00:02:52.429Z,840
2022-11-25T00:04:36.134Z,838.7
2022-11-25T00:06:19.879Z,836
2022-11-25T00:08:03.529Z,833.4
2022-11-25T00:09:47.269Z,829.8
2022-11-25T00:11:30.956Z,825.8
2022-11-25T00:13:14.652Z,824.9
2022-11-25T00:14:58.338Z,822.8
2022-11-25T00:16:42.032Z,820.2
2022-11-25T00:18:25.745Z,814.9
2022-11-25T00:20:09.447Z,808.3
2022-11-25T00:21:53.143Z,803.1
2022-11-25T00:23:36.846Z,798
2022-11-25T00:25:20.630Z,795
2022-11-25T00:27:04.249Z,789.3
2022-11-25T00:28:48.000Z,785.9
2022-11-25T00:30:31.673Z,779.8
2022-11-25T00:32:15.361Z,776.1
2022-11-25T00:33:59.057Z,773.6
2022-11-25T00:35:42.763Z,770.2
2022-11-25T00:37:26.477Z,770.2
2022-11-25T00:39:10.208Z,771.9
2022-11-25T00:40:53.878Z,771.9
2022-11-25T00:42:37.569Z,770.4
2022-11-25T00:44:21.272Z,765.4
2022-11-25T00:46:04.975Z,760.6
2022-11-25T00:47:48.685Z,758.1
2022-11-25T00:49:32.379Z,755.1
2022-11-25T00:51:16.095Z,753.3
2022-11-25T00:52:59.796Z,749.3
2022-11-25T00:54:43.501Z,745.9
2022-11-25T00:56:27.192Z,737.3
2022-11-25T00:58:10.900Z,736.3
2022-11-25T00:59:54.615Z,739
2022-11-25T01:01:38.298Z,736.1
2022-11-25T01:03:21.993Z,731.8
2022-11-25T01:05:05.699Z,730.8
2022-11-25T01:06:49.399Z,728.7
2022-11-25T01:08:33.095Z,726.6
2022-11-25T01:10:16.796Z,723.9
2022-11-25T01:12:00.500Z,721.7
2022-11-25T01:13:44.243Z,721.3
2022-11-25T01:15:27.895Z,719.1
2022-11-25T01:17:11.689Z,717.5
2022-11-25T01:18:55.313Z,713.2
2022-11-25T01:20:39.007Z,707.4
2022-11-25T01:22:22.717Z,706.7
2022-11-25T01:24:06.687Z,704.7
2022-11-25T01:25:50.138Z,705.4
2022-11-25T01:27:33.870Z,701.2
2022-11-25T01:29:17.524Z,698.5
2022-11-25T01:31:01.224Z,696.8
2022-11-25T01:32:44.919Z,693.7
2022-11-25T01:34:28.639Z,690.8
2022-11-25T01:36:12.331Z,687.2
2022-11-25T01:37:56.024Z,682.8
2022-11-25T01:39:39.809Z,681.7
2022-11-25T01:43:07.138Z,678.5
2022-11-25T01:44:50.843Z,674.8
2022-11-25T01:46:34.546Z,673.2
2022-11-25T01:48:18.239Z,670.1
2022-11-25T01:50:01.943Z,667.2
2022-11-25T01:51:45.653Z,668.2
2022-11-25T01:53:29.334Z,668.5
2022-11-25T01:55:13.155Z,667.2
2022-11-25T01:56:56.757Z,665.9
2022-11-25T01:58:40.463Z,666.4
2022-11-25T02:00:24.161Z,660.6
2022-11-25T02:02:07.855Z,656.4
2022-11-25T02:03:51.566Z,652.6
2022-11-25T02:05:35.262Z,651.9
2022-11-25T02:07:18.962Z,652.6
2022-11-25T02:09:02.663Z,648.3
2022-11-25T02:10:46.366Z,646.6
2022-11-25T02:12:30.092Z,644.6
2022-11-25T02:15:57.465Z,642.4
2022-11-25T02:17:41.161Z,640.2
2022-11-25T02:19:24.873Z,638.8
2022-11-25T02:21:08.573Z,637.9
2022-11-25T02:22:52.269Z,635.7
2022-11-25T02:24:36.045Z,638.6
2022-11-25T02:26:19.684Z,636.2
2022-11-25T02:28:03.395Z,634.3
2022-11-25T02:29:47.114Z,631.4
2022-11-25T02:31:30.783Z,627.4
2022-11-25T02:33:14.524Z,626.4
2022-11-25T02:34:58.227Z,627.3
2022-11-25T02:36:41.884Z,625.4
2022-11-25T02:38:25.582Z,623.7
2022-11-25T02:40:09.300Z,621.3
2022-11-25T02:41:53.004Z,621.3
2022-11-25T02:43:36.703Z,616.5
2022-11-25T02:45:20.406Z,617.1
2022-11-25T02:47:04.118Z,615.9
2022-11-25T02:48:47.802Z,615.9
2022-11-25T02:50:31.505Z,616.9
2022-11-25T02:52:15.270Z,616
2022-11-25T02:53:58.894Z,614.7
2022-11-25T02:55:42.605Z,611.5
2022-11-25T02:57:26.309Z,611.8
2022-11-25T02:59:10.034Z,610.8
2022-11-25T03:00:53.706Z,611.1
2022-11-25T03:02:37.411Z,609.7
2022-11-25T03:04:21.104Z,603.1
2022-11-25T03:06:04.822Z,601.2
2022-11-25T03:07:48.533Z,602.3
2022-11-25T03:09:32.213Z,599.4
2022-11-25T03:11:15.920Z,597.4
2022-11-25T03:12:59.639Z,596.3
2022-11-25T03:14:43.317Z,596.2
2022-11-25T03:16:27.023Z,591.5
2022-11-25T03:18:10.726Z,590.3
2022-11-25T03:19:54.433Z,590.7
2022-11-25T03:23:21.838Z,591.6
2022-11-25T03:25:05.538Z,588.3
2022-11-25T03:26:49.240Z,584.8
2022-11-25T03:28:32.926Z,583
2022-11-25T03:30:16.628Z,583.9
2022-11-25T03:32:00.344Z,583.1
2022-11-25T03:33:44.044Z,582.3
2022-11-25T03:35:27.766Z,583.1
2022-11-25T03:37:11.450Z,579.7
2022-11-25T03:38:55.196Z,578
2022-11-25T03:40:38.843Z,578.1
2022-11-25T03:42:22.553Z,579.1
2022-11-25T03:44:06.244Z,580.6
2022-11-25T03:45:49.945Z,581.5
2022-11-25T03:47:33.651Z,579.3
2022-11-25T03:49:17.401Z,577.8
2022-11-25T03:51:01.078Z,576.3
2022-11-25T03:52:44.758Z,575.6
2022-11-25T03:54:28.453Z,573.9
2022-11-25T03:56:12.166Z,569.7
2022-11-25T03:57:55.874Z,565.5
2022-11-25T03:59:39.554Z,566.6
2022-11-25T04:01:23.275Z,566.3
2022-11-25T04:03:06.979Z,567.2
2022-11-25T04:04:50.654Z,567.5
2022-11-25T04:06:34.354Z,567.3
2022-11-25T04:08:18.066Z,566.8
2022-11-25T04:10:01.796Z,565.6
2022-11-25T04:11:45.465Z,565.4
2022-11-25T04:13:29.199Z,563.5
2022-11-25T04:15:12.864Z,561
2022-11-25T04:16:56.595Z,557.1
2022-11-25T04:18:40.290Z,557
2022-11-25T04:20:23.971Z,556.2
2022-11-25T04:22:07.678Z,556.8
2022-11-25T04:23:51.378Z,553.8
2022-11-25T04:25:35.080Z,553.8
2022-11-25T04:27:18.771Z,555.2
2022-11-25T04:29:02.472Z,553.5
2022-11-25T04:30:46.215Z,553
2022-11-25T04:32:29.893Z,554.5
2022-11-25T04:34:13.580Z,552.1
2022-11-25T04:35:57.278Z,548.7
2022-11-25T04:37:41.003Z,547.3
2022-11-25T04:39:24.699Z,549.8
2022-11-25T04:41:08.404Z,549.1
2022-11-25T04:42:52.102Z,549.2
2022-11-25T04:44:35.803Z,549.6
2022-11-25T04:46:19.511Z,550.4
2022-11-25T04:48:03.216Z,549.5
2022-11-25T04:49:46.891Z,548.5
2022-11-25T04:51:30.610Z,548.6
2022-11-25T04:53:14.339Z,547.2
2022-11-25T04:54:58.012Z,545.9
2022-11-25T04:56:41.704Z,545.6
2022-11-25T04:58:25.399Z,545.4
2022-11-25T05:00:09.094Z,543.8
2022-11-25T05:01:52.818Z,540.9
2022-11-25T05:03:36.494Z,537
2022-11-25T05:05:20.308Z,535.8
2022-11-25T05:07:03.911Z,537.1
2022-11-25T05:08:47.617Z,538
2022-11-25T05:10:31.304Z,539.6
2022-11-25T05:12:15.016Z,538
2022-11-25T05:13:58.764Z,539.4
2022-11-25T05:17:26.139Z,539
2022-11-25T05:19:09.829Z,536.3
2022-11-25T05:20:53.536Z,539.6
2022-11-25T05:22:37.306Z,541.6
2022-11-25T05:24:20.936Z,546.3
2022-11-25T05:26:04.647Z,547.8
2022-11-25T05:27:48.369Z,547.5
2022-11-25T05:29:32.037Z,546.3
2022-11-25T05:31:15.751Z,544.2
2022-11-25T05:32:59.448Z,542.1
2022-11-25T05:34:43.136Z,542.3
2022-11-25T05:36:26.856Z,542
2022-11-25T05:38:10.551Z,540.4
2022-11-25T05:39:54.246Z,539.1
2022-11-25T05:41:37.985Z,536.8
2022-11-25T05:43:21.683Z,538.7
2022-11-25T05:45:05.365Z,537.9
2022-11-25T05:46:49.066Z,534.4
2022-11-25T05:48:32.774Z,534.8
2022-11-25T05:50:16.495Z,534
2022-11-25T05:52:00.165Z,532.9
2022-11-25T05:53:43.918Z,531.5
2022-11-25T05:55:27.841Z,532.5
2022-11-25T05:57:11.307Z,529.9
2022-11-25T05:58:54.987Z,526.4
2022-11-25T06:00:38.682Z,525.6
2022-11-25T06:02:22.428Z,525.8
2022-11-25T06:04:06.079Z,524.8
2022-11-25T06:05:49.818Z,524.1
2022-11-25T06:07:33.496Z,520.9
2022-11-25T06:09:17.179Z,521.8
2022-11-25T06:11:00.888Z,522.9
2022-11-25T06:12:44.657Z,521.8
2022-11-25T06:14:28.286Z,521.9
2022-11-25T06:16:11.967Z,522.4
2022-11-25T06:17:55.680Z,520.9
2022-11-25T06:19:39.392Z,521.7
2022-11-25T06:21:23.099Z,517.9
2022-11-25T06:23:06.799Z,517.7
2022-11-25T06:24:50.482Z,518.3
2022-11-25T06:26:34.192Z,519.7
2022-11-25T06:28:18.032Z,520.7
2022-11-25T06:30:01.577Z,521
2022-11-25T06:31:45.424Z,520
2022-11-25T06:33:29.045Z,520
2022-11-25T06:35:12.690Z,520.2
2022-11-25T06:36:56.440Z,521
2022-11-25T06:38:40.179Z,517.9
2022-11-25T06:40:23.783Z,522.2
2022-11-25T06:42:07.487Z,523.1
2022-11-25T06:43:51.179Z,522.9
2022-11-25T06:45:34.913Z,518.5
2022-11-25T06:47:18.620Z,519.6
2022-11-25T06:49:02.300Z,520.3
2022-11-25T06:50:46.017Z,518.1
2022-11-25T06:52:29.690Z,515.5
2022-11-25T06:54:13.396Z,512.1
2022-11-25T06:55:57.108Z,513.2
2022-11-25T06:57:40.814Z,513
2022-11-25T06:59:24.507Z,511.6
2022-11-25T07:01:08.270Z,510.3
2022-11-25T07:02:51.967Z,511.2
2022-11-25T07:04:35.685Z,509.8
2022-11-25T07:06:19.384Z,505.1
2022-11-25T07:08:03.020Z,506.5
2022-11-25T07:09:46.708Z,505.8
2022-11-25T07:11:30.414Z,504.8
2022-11-25T07:13:14.239Z,502.7
2022-11-25T07:14:57.996Z,501.1
2022-11-25T07:16:41.677Z,503.4
2022-11-25T07:18:25.221Z,502.6
2022-11-25T07:20:08.930Z,501.8
2022-11-25T07:21:52.709Z,505.5
2022-11-25T07:23:36.335Z,506.1
2022-11-25T07:25:20.034Z,504.1
2022-11-25T07:27:03.749Z,505.1
2022-11-25T07:28:47.417Z,502.8
2022-11-25T07:30:31.199Z,502.2
2022-11-25T07:32:14.840Z,502.1
2022-11-25T07:33:58.534Z,502.1
2022-11-25T07:35:42.227Z,502.3
2022-11-25T07:37:25.943Z,503.2
2022-11-25T07:39:09.687Z,503.5
2022-11-25T07:40:53.448Z,504.4
2022-11-25T07:42:37.023Z,504.1
2022-11-25T07:44:20.852Z,504.1
2022-11-25T07:46:04.571Z,506.5
2022-11-25T07:47:48.214Z,507
2022-11-25T07:49:31.929Z,505.5
2022-11-25T07:51:15.591Z,505.2
2022-11-25T07:52:59.289Z,506.7
2022-11-25T07:54:43.078Z,504.9
2022-11-25T07:56:26.705Z,503.6
2022-11-25T07:58:10.393Z,505
2022-11-25T07:59:54.182Z,506.7
2022-11-25T08:01:37.960Z,508.1
2022-11-25T08:03:21.606Z,509
2022-11-25T08:05:05.315Z,510.4
2022-11-25T08:06:48.889Z,512
2022-11-25T08:08:32.634Z,510.7
2022-11-25T08:10:16.504Z,509.4
2022-11-25T08:12:00.087Z,509.2
2022-11-25T08:13:43.680Z,508.1
2022-11-25T08:15:27.415Z,508.5
2022-11-25T08:17:11.221Z,505.4
2022-11-25T08:18:54.575Z,506.7
2022-11-25T08:20:38.173Z,511.3
2022-11-25T08:22:21.882Z,517.2
2022-11-25T08:24:05.563Z,520.1
2022-11-25T08:25:49.271Z,521.6
2022-11-25T08:27:32.967Z,521.9
2022-11-25T08:29:16.846Z,528.2
2022-11-25T08:31:00.549Z,527.6
2022-11-25T08:32:44.200Z,524.9
2022-11-25T08:34:27.944Z,524.8
2022-11-25T08:36:11.653Z,526.8
2022-11-25T08:37:55.354Z,531.1
2022-11-25T08:39:38.898Z,531.9
2022-11-25T08:41:22.619Z,531.8
2022-11-25T08:43:06.301Z,533.2
2022-11-25T08:44:50.014Z,537.5
2022-11-25T08:46:33.714Z,539.2
2022-11-25T08:48:17.418Z,543.4
2022-11-25T08:50:01.129Z,545.3
2022-11-25T08:51:44.814Z,545.4
2022-11-25T08:53:28.523Z,543.9
2022-11-25T08:55:12.229Z,546
2022-11-25T08:56:55.959Z,544.3
2022-11-25T08:58:39.632Z,545.8
2022-11-25T09:00:23.321Z,548.9
2022-11-25T09:02:07.072Z,549.5
2022-11-25T09:03:50.728Z,547.6
2022-11-25T09:05:34.452Z,546.4
2022-11-25T09:07:18.162Z,547
2022-11-25T09:09:02.146Z,548.7
2022-11-25T09:10:45.651Z,547.7
2022-11-25T09:12:29.352Z,547.4
2022-11-25T09:14:12.954Z,547.8
2022-11-25T09:15:56.645Z,546.4
2022-11-25T09:17:40.355Z,546.4
2022-11-25T09:19:24.038Z,546.1
2022-11-25T09:21:07.765Z,544.7
2022-11-25T09:22:51.452Z,543.5
2022-11-25T09:24:35.157Z,546.1
2022-11-25T09:26:18.872Z,548.9
2022-11-25T09:28:02.573Z,550.1
2022-11-25T09:29:46.259Z,546.9
2022-11-25T09:31:29.960Z,544.8
2022-11-25T09:33:13.668Z,545
2022-11-25T09:34:57.370Z,544.5
2022-11-25T09:36:41.071Z,544.1
2022-11-25T09:38:24.807Z,544.7
2022-11-25T09:40:08.482Z,545.1
2022-11-25T09:41:52.331Z,546.7
2022-11-25T09:43:35.889Z,547.6
2022-11-25T09:45:19.577Z,548
2022-11-25T09:47:03.289Z,550.4
2022-11-25T09:48:46.985Z,551.4
2022-11-25T09:50:30.709Z,550.9
2022-11-25T09:52:14.376Z,553.8
2022-11-25T09:53:58.098Z,557.8
2022-11-25T09:55:41.801Z,560.3
2022-11-25T09:57:25.512Z,563.7
2022-11-25T09:59:09.216Z,566.3
2022-11-25T10:00:52.889Z,568.6
2022-11-25T10:02:36.602Z,574
2022-11-25T10:04:20.305Z,579.6
2022-11-25T10:06:03.985Z,582.6
2022-11-25T10:07:47.708Z,586.1
2022-11-25T10:09:31.406Z,587
2022-11-25T10:11:15.120Z,587.9
2022-11-25T10:12:58.807Z,586.4
2022-11-25T10:14:42.508Z,586.9
2022-11-25T10:16:26.219Z,587.7
2022-11-25T10:18:09.926Z,591
2022-11-25T10:19:53.632Z,591.2
2022-11-25T10:21:37.335Z,589.8
2022-11-25T10:23:21.020Z,591.7
2022-11-25T10:25:04.742Z,594.3
2022-11-25T10:26:48.450Z,597.7
2022-11-25T10:28:32.135Z,604.1
2022-11-25T10:30:15.837Z,611
2022-11-25T10:31:59.534Z,615
2022-11-25T10:33:43.256Z,613.5
2022-11-25T10:35:26.946Z,614.7
2022-11-25T10:37:10.639Z,617.6
2022-11-25T10:38:54.333Z,617.7
2022-11-25T10:40:38.059Z,620.1
2022-11-25T10:42:21.726Z,622.8
2022-11-25T10:44:05.441Z,624.9
2022-11-25T10:45:49.144Z,627.8
2022-11-25T10:47:32.859Z,628.5
2022-11-25T10:49:16.662Z,633
2022-11-25T10:51:00.267Z,646.5
2022-11-25T10:52:43.986Z,662.3
2022-11-25T10:54:27.788Z,707.1
2022-11-25T10:56:11.560Z,717
2022-11-25T10:57:55.058Z,719.5
2022-11-25T10:59:38.776Z,725
2022-11-25T11:01:22.492Z,735.2
2022-11-25T11:03:06.171Z,750.3
2022-11-25T11:04:49.871Z,758.1
2022-11-25T11:06:33.581Z,761.5
2022-11-25T11:08:17.293Z,765
2022-11-25T11:10:00.985Z,766.9
2022-11-25T11:11:44.677Z,783.6
2022-11-25T11:13:28.390Z,785.3
2022-11-25T11:15:12.091Z,839.2
2022-11-25T11:16:55.795Z,842.7
2022-11-25T11:18:39.476Z,849.1
2022-11-25T11:20:23.210Z,876
2022-11-25T11:22:06.890Z,888.5
2022-11-25T11:23:50.602Z,898.7
2022-11-25T11:25:34.287Z,913.8
2022-11-25T11:27:17.994Z,923.1
2022-11-25T11:29:01.702Z,933.8
2022-11-25T11:30:45.397Z,941
2022-11-25T11:32:29.100Z,944.2
2022-11-25T11:34:12.795Z,950.7
2022-11-25T11:35:56.513Z,952.2
2022-11-25T11:37:40.217Z,955.8
2022-11-25T11:39:23.935Z,956
2022-11-25T11:41:07.602Z,962.5
2022-11-25T11:42:51.346Z,972.1
2022-11-25T11:44:35.027Z,981
2022-11-25T11:46:18.731Z,993.1
2022-11-25T11:48:02.429Z,1004.8
2022-11-25T11:49:46.133Z,1016.8
2022-11-25T11:51:29.815Z,1020.4
2022-11-25T11:53:13.545Z,1014.5
2022-11-25T11:54:57.228Z,991.4
2022-11-25T11:56:40.915Z,969.8
2022-11-25T11:58:24.637Z,962.2
2022-11-25T12:00:08.339Z,954.3
2022-11-25T12:01:52.039Z,950.2
2022-11-25T12:03:35.741Z,946.6
2022-11-25T12:05:19.620Z,940.6
2022-11-25T12:07:03.209Z,938.7
2022-11-25T12:08:46.846Z,936.6
2022-11-25T12:10:30.545Z,933
2022-11-25T12:12:14.294Z,930.8
2022-11-25T12:13:57.952Z,928.5
2022-11-25T12:15:41.653Z,929.5
2022-11-25T12:17:25.343Z,933.2
2022-11-25T12:19:09.037Z,940.6
2022-11-25T12:20:52.754Z,950.1
2022-11-25T12:22:36.464Z,951.2
2022-11-25T12:24:20.143Z,950.5
2022-11-25T12:26:03.844Z,950.3
2022-11-25T12:27:47.566Z,956.3
2022-11-25T12:29:31.269Z,966.8
2022-11-25T12:31:14.968Z,977
2022-11-25T12:32:58.866Z,975.4
2022-11-25T12:34:42.455Z,976.3
2022-11-25T12:36:26.340Z,977.9
2022-11-25T12:38:09.769Z,975.9
2022-11-25T12:39:53.474Z,982.5
2022-11-25T12:41:37.184Z,990.4
2022-11-25T12:43:20.881Z,992.8
2022-11-25T12:45:04.593Z,993.4
2022-11-25T12:46:48.291Z,998
2022-11-25T12:48:31.978Z,1002.4
2022-11-25T12:50:15.690Z,1002.1
2022-11-25T12:51:59.398Z,999
2022-11-25T12:53:43.092Z,999.8
2022-11-25T12:55:26.812Z,1006.3
2022-11-25T12:57:10.698Z,1011.9
2022-11-25T12:58:54.200Z,1012
2022-11-25T13:00:37.880Z,1016.4
2022-11-25T13:02:21.784Z,1017.7
2022-11-25T13:04:05.296Z,1019.3
2022-11-25T13:05:48.998Z,1017.6
2022-11-25T13:07:32.702Z,1015.1
2022-11-25T13:09:16.414Z,1008.9
2022-11-25T13:11:00.272Z,1004
2022-11-25T13:12:43.877Z,1000.4
2022-11-25T13:14:27.532Z,996.2
2022-11-25T13:16:11.218Z,997
2022-11-25T13:17:54.918Z,997.4
2022-11-25T13:19:38.689Z,994.4
2022-11-25T13:21:22.514Z,989.4
2022-11-25T13:23:06.186Z,985.2
2022-11-25T13:24:49.718Z,985.1
2022-11-25T13:26:33.449Z,983.9
2022-11-25T13:28:17.150Z,982.9
2022-11-25T13:30:00.844Z,985.2
2022-11-25T13:31:44.537Z,985.8
2022-11-25T13:33:28.237Z,987.5
2022-11-25T13:35:11.941Z,987.4
2022-11-25T13:36:55.624Z,988.4
2022-11-25T13:38:39.340Z,990.5
2022-11-25T13:40:23.029Z,999.9
2022-11-25T13:42:06.752Z,1008.6
2022-11-25T13:43:50.443Z,1015.7
2022-11-25T13:45:34.151Z,1021.9
2022-11-25T13:47:17.847Z,1029.4
2022-11-25T13:49:01.538Z,1036.6
2022-11-25T13:50:45.245Z,1042.7
2022-11-25T13:52:28.954Z,1045.9
2022-11-25T13:54:12.647Z,1051.7
2022-11-25T13:55:56.401Z,1056.1
2022-11-25T13:57:40.072Z,1057.3
2022-11-25T13:59:23.768Z,1057
2022-11-25T14:01:07.475Z,1054.5
2022-11-25T14:02:51.171Z,1050.4
2022-11-25T14:04:34.891Z,1050.7
2022-11-25T14:06:18.682Z,1055.3
2022-11-25T14:08:02.270Z,1054.6
2022-11-25T14:09:45.977Z,1054.2
2022-11-25T14:11:29.679Z,1051.6
2022-11-25T14:13:13.364Z,1048.4
2022-11-25T14:14:57.078Z,1048.7
2022-11-25T14:16:40.796Z,1045.5
2022-11-25T14:18:24.517Z,1044.7
2022-11-25T14:20:08.178Z,1043.3
2022-11-25T14:21:51.867Z,1046.1
2022-11-25T14:23:35.582Z,1049.8
2022-11-25T14:25:19.309Z,1052.8
2022-11-25T14:27:02.978Z,1053.3
2022-11-25T14:28:46.677Z,1051.7
2022-11-25T14:30:30.394Z,1049.8
2022-11-25T14:32:14.094Z,1050
2022-11-25T14:33:57.812Z,1052.3
2022-11-25T14:35:41.498Z,1052.2
2022-11-25T14:37:25.367Z,1049.5
2022-11-25T14:39:08.915Z,1052.4
2022-11-25T14:40:52.589Z,1052.4
2022-11-25T14:42:36.301Z,1051.7
2022-11-25T14:44:20.000Z,1058
2022-11-25T14:46:03.752Z,1062.4
2022-11-25T14:47:47.417Z,1064.5
2022-11-25T14:49:31.140Z,1065.3
2022-11-25T14:51:14.816Z,1064.2
2022-11-25T14:52:58.531Z,1067.1
2022-11-25T14:54:42.217Z,1065.9
2022-11-25T14:56:25.979Z,1064.5
2022-11-25T14:58:09.620Z,1068.9
2022-11-25T14:59:53.341Z,1070.3
2022-11-25T15:01:37.070Z,1070.2
2022-11-25T15:03:20.820Z,1068.6
2022-11-25T15:05:04.433Z,1071
2022-11-25T15:06:48.147Z,1074.3
2022-11-25T15:08:31.856Z,1073.1
2022-11-25T15:10:15.220Z,1083.2
2022-11-25T15:11:58.955Z,1089.5
2022-11-25T15:13:42.640Z,1095.8
2022-11-25T15:15:26.347Z,1101.6
2022-11-25T15:17:10.037Z,1105.8
2022-11-25T15:18:53.732Z,1131.7
2022-11-25T15:20:37.442Z,1141
2022-11-25T15:22:21.143Z,1137.6
2022-11-25T15:24:05.010Z,1128.1
2022-11-25T15:25:48.672Z,1126.3
2022-11-25T15:27:32.232Z,1122.2
2022-11-25T15:29:15.952Z,1119.9
2022-11-25T15:30:59.683Z,1116.7
2022-11-25T15:32:43.527Z,1117.8
2022-11-25T15:34:27.249Z,1116.9
2022-11-25T15:36:10.930Z,1118
2022-11-25T15:37:54.714Z,1119.6
2022-11-25T15:39:38.316Z,1118.2
2022-11-25T15:41:21.973Z,1118.2
2022-11-25T15:43:05.756Z,1119.7
2022-11-25T15:44:49.293Z,1118.7
2022-11-25T15:46:33.128Z,1116.1
2022-11-25T15:48:16.860Z,1121.9
2022-11-25T15:50:00.372Z,1125.3
2022-11-25T15:51:44.159Z,1124.1
2022-11-25T15:53:27.905Z,1125.6
2022-11-25T15:55:11.625Z,1132.3
2022-11-25T15:56:55.164Z,1137.1
2022-11-25T15:58:39.046Z,1136
2022-11-25T16:00:22.734Z,1136.7
2022-11-25T16:02:06.416Z,1139.1
2022-11-25T16:03:50.014Z,1140.9
2022-11-25T16:05:33.710Z,1140.5
2022-11-25T16:07:17.577Z,1142.4
2022-11-25T16:09:01.326Z,1140.1
2022-11-25T16:10:44.955Z,1137
2022-11-25T16:12:28.670Z,1135.1
2022-11-25T16:14:12.337Z,1131.7
2022-11-25T16:15:56.078Z,1126.7
2022-11-25T16:17:39.756Z,1125.2
2022-11-25T16:19:23.432Z,1122.5
2022-11-25T16:21:07.024Z,1113.7
2022-11-25T16:22:50.733Z,1106.4
2022-11-25T16:24:34.617Z,1101.9
2022-11-25T16:26:18.125Z,1093.8
2022-11-25T16:28:01.835Z,1087.4
2022-11-25T16:29:45.711Z,1082.7
2022-11-25T16:31:29.407Z,1082.8
2022-11-25T16:33:13.134Z,1082.6
2022-11-25T16:34:56.756Z,1077.4
2022-11-25T16:36:40.481Z,1078.5
2022-11-25T16:38:24.196Z,1078.9
2022-11-25T16:40:07.973Z,1077.6
2022-11-25T16:41:51.529Z,1079.2
2022-11-25T16:43:35.328Z,1081.2
2022-11-25T16:45:19.030Z,1080.1
2022-11-25T16:47:02.761Z,1081.9
2022-11-25T16:48:46.379Z,1079.2
2022-11-25T16:50:30.110Z,1077.9
2022-11-25T16:52:13.794Z,1086.9
2022-11-25T16:53:57.578Z,1112.7
2022-11-25T16:55:41.229Z,1130.2
2022-11-25T16:57:24.922Z,1132.1
2022-11-25T16:59:08.483Z,1133.4
2022-11-25T17:00:52.366Z,1135
2022-11-25T17:02:36.322Z,1137
2022-11-25T17:04:19.634Z,1136.7
2022-11-25T17:06:03.516Z,1141.6
2022-11-25T17:07:47.124Z,1144.7
2022-11-25T17:09:30.658Z,1146.5
2022-11-25T17:11:14.372Z,1149.2
2022-11-25T17:12:58.227Z,1147.8
2022-11-25T17:14:41.782Z,1144.5
2022-11-25T17:16:25.476Z,1143.1
2022-11-25T17:18:09.362Z,1143.9
2022-11-25T17:19:53.044Z,1146.7
2022-11-25T17:21:36.775Z,1150.1
2022-11-25T17:23:20.446Z,1152.9
2022-11-25T17:25:04.002Z,1148.6
2022-11-25T17:26:47.702Z,1146.2
2022-11-25T17:28:31.600Z,1142.3
2022-11-25T17:30:15.237Z,1139.6
2022-11-25T17:31:58.997Z,1135.2
2022-11-25T17:33:42.686Z,1131.5
2022-11-25T17:35:26.401Z,1128.5
2022-11-25T17:37:10.099Z,1123.3
2022-11-25T17:38:53.776Z,1120.2
2022-11-25T17:40:37.422Z,1117.7
2022-11-25T17:42:21.234Z,1113.2
2022-11-25T17:44:05.004Z,1112.5
2022-11-25T17:45:48.645Z,1106.8
2022-11-25T17:47:32.319Z,1101.8
2022-11-25T17:49:16.015Z,1093.9
2022-11-25T17:50:59.729Z,1081.8
2022-11-25T17:52:43.223Z,1076.6
2022-11-25T17:54:27.092Z,1070.8
2022-11-25T17:56:10.834Z,1068.1
2022-11-25T17:57:54.608Z,1063.6
2022-11-25T17:59:38.192Z,1058.4
2022-11-25T18:01:21.953Z,1051.6
2022-11-25T18:03:05.637Z,1044.7
2022-11-25T18:04:49.354Z,1039.6
2022-11-25T18:06:32.999Z,1036.7
2022-11-25T18:08:16.723Z,1036.2
2022-11-25T18:10:00.411Z,1033.2
2022-11-25T18:11:44.066Z,1027.1
2022-11-25T18:13:27.847Z,1019.1
2022-11-25T18:15:11.517Z,1013.2
2022-11-25T18:16:55.227Z,1005.6
2022-11-25T18:18:38.949Z,997.6
2022-11-25T18:20:22.592Z,991.5
2022-11-25T18:22:06.366Z,989.5
2022-11-25T18:23:50.042Z,987.1
2022-11-25T18:25:33.744Z,983.1
2022-11-25T18:27:17.470Z,974.2
2022-11-25T18:29:01.175Z,967.3
2022-11-25T18:30:44.848Z,959.9
2022-11-25T18:32:28.368Z,954.5
2022-11-25T18:34:12.078Z,952.5
2022-11-25T18:35:55.774Z,946.8
2022-11-25T18:37:39.483Z,940.7
2022-11-25T18:39:23.186Z,940.6
2022-11-25T18:41:06.901Z,937.4
2022-11-25T18:42:50.582Z,932.6
2022-11-25T18:44:34.285Z,926.3
2022-11-25T18:46:18.046Z,920.9
2022-11-25T18:48:01.674Z,918.9
2022-11-25T18:49:45.397Z,916.1
2022-11-25T18:51:29.084Z,912.1
2022-11-25T18:53:12.790Z,908.8
2022-11-25T18:54:56.551Z,904.5
2022-11-25T18:56:40.208Z,899.4
2022-11-25T18:58:23.898Z,892.8
2022-11-25T19:00:07.591Z,889.6
2022-11-25T19:01:51.282Z,885.6
2022-11-25T19:03:34.979Z,881
2022-11-25T19:05:18.697Z,877.6
2022-11-25T19:07:02.449Z,873.5
2022-11-25T19:08:46.103Z,871.3
2022-11-25T19:10:29.787Z,865.6
2022-11-25T19:12:13.490Z,862.1
2022-11-25T19:13:57.190Z,858.9
2022-11-25T19:15:40.883Z,857.5
2022-11-25T19:17:24.664Z,856.6
2022-11-25T19:19:08.297Z,854
2022-11-25T19:20:51.998Z,847.3
2022-11-25T19:22:35.699Z,842.6
2022-11-25T19:24:19.402Z,838.5
2022-11-25T19:26:03.105Z,833.5
2022-11-25T19:27:46.848Z,831.9
2022-11-25T19:29:30.546Z,834.4
2022-11-25T19:31:14.207Z,830.1
2022-11-25T19:32:57.919Z,823.4
2022-11-25T19:34:41.633Z,821.6
2022-11-25T19:36:25.347Z,821.1
2022-11-25T19:38:09.032Z,818
2022-11-25T19:39:52.752Z,814.5
2022-11-25T19:41:36.449Z,812.4
2022-11-25T19:43:20.159Z,809.5
2022-11-25T19:45:03.877Z,808
2022-11-25T19:46:47.536Z,805.9
2022-11-25T19:48:31.233Z,803.2
2022-11-25T19:50:14.936Z,799.2
2022-11-25T19:51:58.633Z,795.6
2022-11-25T19:53:42.321Z,792.7
2022-11-25T19:55:26.052Z,790.4
2022-11-25T19:57:09.753Z,791.1
2022-11-25T19:58:53.445Z,788.3
2022-11-25T20:00:37.144Z,788.3
2022-11-25T20:02:20.867Z,787.4
2022-11-25T20:04:04.632Z,787.2
2022-11-25T20:05:48.262Z,786.2
2022-11-25T20:07:31.955Z,786.3
2022-11-25T20:09:15.664Z,785.2
2022-11-25T20:10:59.363Z,783.7
2022-11-25T20:12:43.062Z,780
2022-11-25T20:14:26.760Z,778.3
2022-11-25T20:16:10.514Z,775.2
2022-11-25T20:17:54.191Z,772.5
2022-11-25T20:19:37.861Z,770
2022-11-25T20:21:21.564Z,766
2022-11-25T20:23:05.260Z,763.9
2022-11-25T20:24:48.973Z,760.7
2022-11-25T20:26:32.749Z,759.5
2022-11-25T20:28:16.368Z,757.6
2022-11-25T20:30:00.077Z,756.4
2022-11-25T20:31:43.765Z,753
2022-11-25T20:33:27.481Z,749.8
2022-11-25T20:35:11.251Z,745.2
2022-11-25T20:36:54.893Z,743.2
2022-11-25T20:38:38.592Z,748
2022-11-25T20:40:22.297Z,750.1
2022-11-25T20:42:06.010Z,746.5
2022-11-25T20:43:49.798Z,742.2
2022-11-25T20:45:33.413Z,740.7
2022-11-25T20:47:17.177Z,736.9
2022-11-25T20:49:00.819Z,736.8
2022-11-25T20:50:44.533Z,735.9
2022-11-25T20:52:28.204Z,734.3
2022-11-25T20:54:11.919Z,734.2
2022-11-25T20:55:55.621Z,734.3
2022-11-25T20:57:39.311Z,734.8
2022-11-25T20:59:23.028Z,730.6
2022-11-25T21:01:06.831Z,725.9
2022-11-25T21:02:50.432Z,720.4
2022-11-25T21:04:34.142Z,720
2022-11-25T21:06:17.814Z,717
2022-11-25T21:08:01.529Z,716.1
2022-11-25T21:09:45.225Z,713.2
2022-11-25T21:11:28.938Z,712.7
2022-11-25T21:13:12.621Z,712.1
2022-11-25T21:14:56.347Z,710.7
2022-11-25T21:16:40.089Z,709.1
2022-11-25T21:18:23.740Z,707.6
2022-11-25T21:20:07.464Z,704.6
2022-11-25T21:21:51.152Z,701.4
2022-11-25T21:23:34.893Z,697.9
2022-11-25T21:25:18.560Z,697.7
2022-11-25T21:27:02.409Z,698.2
2022-11-25T21:28:45.977Z,697.1
2022-11-25T21:30:29.657Z,693.5
2022-11-25T21:32:13.379Z,689.7
2022-11-25T21:33:57.071Z,687.6
2022-11-25T21:35:40.766Z,687.9
2022-11-25T21:37:24.475Z,687.5
2022-11-25T21:39:08.213Z,687.8
2022-11-25T21:40:51.867Z,684.2
2022-11-25T21:42:35.565Z,682.1
2022-11-25T21:44:19.277Z,681.1
2022-11-25T21:46:02.995Z,681.1
2022-11-25T21:47:46.759Z,681.6
2022-11-25T21:49:30.382Z,680.9
2022-11-25T21:51:14.265Z,681
2022-11-25T21:52:57.842Z,680.9
2022-11-25T21:54:41.496Z,686.3
2022-11-25T21:56:25.194Z,698.2
2022-11-25T21:58:08.904Z,708.4
2022-11-25T21:59:52.594Z,716.6
2022-11-25T22:01:36.306Z,724.4
2022-11-25T22:03:20.006Z,732.6
2022-11-25T22:05:03.718Z,733.4
2022-11-25T22:06:47.409Z,730.6
2022-11-25T22:08:31.126Z,727
2022-11-25T22:10:14.817Z,726.6
2022-11-25T22:11:58.524Z,724
2022-11-25T22:13:42.234Z,723.6
2022-11-25T22:15:25.937Z,722.6
2022-11-25T22:17:09.632Z,721.5
2022-11-25T22:18:53.331Z,720.8
2022-11-25T22:20:37.053Z,720